createdAt,value
2023-10-27T00:01:06.188Z,9.70
2023-10-27T00:03:46.702Z,9.10
2023-10-27T00:06:20.373Z,9.10
2023-10-27T00:08:54.225Z,9.70
2023-10-27T00:11:28.654Z,9.30
2023-10-27T00:14:02.722Z,10.00
2023-10-27T00:16:36.772Z,9.80
2023-10-27T00:19:11.007Z,9.10
2023-10-27T00:21:45.229Z,8.20
2023-10-27T00:24:19.178Z,9.30
2023-10-27T00:26:53.092Z,9.50
2023-10-27T00:29:26.950Z,8.60
2023-10-27T00:32:00.952Z,8.50
2023-10-27T00:34:34.595Z,8.80
2023-10-27T00:37:09.442Z,9.30
2023-10-27T00:39:43.449Z,10.00
2023-10-27T00:42:17.326Z,9.50
2023-10-27T00:44:51.026Z,9.80
2023-10-27T00:47:26.132Z,9.10
2023-10-27T00:50:00.407Z,10.20
2023-10-27T00:52:34.532Z,8.50
2023-10-27T00:55:11.357Z,9.70
2023-10-27T00:57:48.453Z,10.30
2023-10-27T01:00:22.708Z,7.80
2023-10-27T01:02:56.408Z,9.70
2023-10-27T01:05:30.961Z,9.70
2023-10-27T01:08:05.092Z,8.60
2023-10-27T01:10:39.063Z,9.30
2023-10-27T01:13:13.109Z,9.80
2023-10-27T01:15:47.345Z,8.60
2023-10-27T01:18:21.331Z,9.70
2023-10-27T01:20:55.472Z,9.50
2023-10-27T01:23:31.134Z,9.20
2023-10-27T01:26:05.286Z,9.00
2023-10-27T01:28:38.981Z,8.80
2023-10-27T01:31:12.699Z,8.10
2023-10-27T01:33:46.642Z,10.00
2023-10-27T01:36:21.022Z,8.80
2023-10-27T01:38:54.882Z,8.80
2023-10-27T01:41:28.693Z,8.70
2023-10-27T01:44:02.633Z,9.50
2023-10-27T01:46:36.919Z,9.20
2023-10-27T01:49:11.418Z,8.20
2023-10-27T01:51:45.505Z,8.00
2023-10-27T01:54:19.581Z,9.60
2023-10-27T01:56:53.176Z,10.50
2023-10-27T01:59:26.850Z,10.30
2023-10-27T02:02:00.984Z,10.40
2023-10-27T02:04:38.662Z,9.80
2023-10-27T02:07:14.065Z,9.50
2023-10-27T02:09:48.508Z,9.80
2023-10-27T02:12:22.218Z,10.70
2023-10-27T02:14:56.078Z,10.30
2023-10-27T02:17:30.342Z,9.50
2023-10-27T02:20:04.344Z,11.20
2023-10-27T02:22:38.217Z,9.60
2023-10-27T02:25:12.451Z,10.70
2023-10-27T02:27:46.450Z,10.20
2023-10-27T02:30:20.411Z,9.60
2023-10-27T02:32:54.219Z,9.00
2023-10-27T02:35:28.641Z,9.70
2023-10-27T02:38:02.133Z,9.60
2023-10-27T02:40:37.910Z,10.00
2023-10-27T02:43:15.110Z,9.60
2023-10-27T02:45:49.409Z,8.80
2023-10-27T02:48:23.216Z,8.80
2023-10-27T02:50:57.022Z,6.00
2023-10-27T02:53:30.821Z,8.10
2023-10-27T02:56:10.974Z,6.30
2023-10-27T02:58:44.904Z,7.70
2023-10-27T03:01:19.152Z,7.30
2023-10-27T03:03:53.513Z,6.80
2023-10-27T03:06:27.249Z,7.90
2023-10-27T03:09:01.170Z,7.40
2023-10-27T03:11:35.016Z,9.60
2023-10-27T03:14:08.997Z,8.80
2023-10-27T03:16:43.028Z,7.90
2023-10-27T03:19:17.056Z,8.80
2023-10-27T03:21:51.459Z,7.70
2023-10-27T03:24:25.239Z,8.20
2023-10-27T03:26:58.777Z,10.00
2023-10-27T03:29:32.806Z,9.80
2023-10-27T03:32:10.255Z,9.50
2023-10-27T03:34:44.901Z,9.80
2023-10-27T03:37:18.828Z,8.70
2023-10-27T03:39:54.642Z,10.10
2023-10-27T03:42:28.378Z,9.30
2023-10-27T03:45:02.143Z,9.20
2023-10-27T03:47:35.965Z,9.10
2023-10-27T03:50:12.291Z,8.00
2023-10-27T03:52:45.928Z,10.20
2023-10-27T03:55:20.154Z,10.00
2023-10-27T03:57:55.345Z,9.20
2023-10-27T04:00:31.256Z,11.00
2023-10-27T04:03:05.186Z,13.10
2023-10-27T04:05:39.305Z,10.40
2023-10-27T04:08:13.027Z,10.80
2023-10-27T04:10:47.462Z,10.00
2023-10-27T04:13:21.420Z,10.10
2023-10-27T04:15:55.369Z,9.20
2023-10-27T04:18:30.527Z,9.40
2023-10-27T04:21:05.289Z,9.20
2023-10-27T04:23:39.088Z,9.50
2023-10-27T04:26:14.337Z,8.90
2023-10-27T04:28:47.939Z,9.50
2023-10-27T04:31:22.391Z,10.90
2023-10-27T04:33:56.522Z,11.90
2023-10-27T04:36:30.047Z,10.50
2023-10-27T04:39:05.280Z,10.60
2023-10-27T04:41:39.166Z,11.90
2023-10-27T04:44:13.987Z,11.40
2023-10-27T04:46:47.748Z,10.10
2023-10-27T04:49:21.824Z,11.20
2023-10-27T04:51:55.844Z,10.70
2023-10-27T04:54:29.670Z,9.40
2023-10-27T04:57:04.712Z,9.40
2023-10-27T04:59:38.837Z,10.20
2023-10-27T05:02:13.778Z,10.20
2023-10-27T05:04:47.509Z,10.60
2023-10-27T05:07:21.785Z,9.90
2023-10-27T05:09:55.622Z,10.20
2023-10-27T05:12:29.654Z,9.20
2023-10-27T05:15:04.610Z,10.20
2023-10-27T05:17:39.811Z,10.00
2023-10-27T05:20:14.709Z,10.40
2023-10-27T05:22:48.377Z,10.70
2023-10-27T05:25:22.410Z,10.80
2023-10-27T05:27:56.322Z,9.10
2023-10-27T05:30:29.857Z,11.50
2023-10-27T05:33:03.716Z,9.00
2023-10-27T05:35:37.504Z,7.60
2023-10-27T05:38:11.385Z,9.60
2023-10-27T05:40:45.066Z,8.80
2023-10-27T05:43:19.446Z,9.70
2023-10-27T05:45:53.340Z,9.70
2023-10-27T05:48:27.366Z,8.70
2023-10-27T05:51:01.606Z,8.60
2023-10-27T05:53:35.707Z,8.70
2023-10-27T05:56:10.475Z,8.20
2023-10-27T05:58:44.158Z,9.40
2023-10-27T06:01:19.056Z,14.00
2023-10-27T06:03:55.205Z,8.30
2023-10-27T06:06:28.954Z,8.50
2023-10-27T06:09:03.187Z,8.20
2023-10-27T06:11:37.382Z,9.20
2023-10-27T06:14:11.701Z,8.80
2023-10-27T06:16:45.719Z,15.70
2023-10-27T06:19:21.549Z,7.90
2023-10-27T06:21:55.593Z,8.70
2023-10-27T06:24:29.963Z,6.80
2023-10-27T06:27:04.668Z,10.90
2023-10-27T06:29:39.952Z,7.80
2023-10-27T06:32:13.842Z,10.50
2023-10-27T06:34:48.070Z,8.50
2023-10-27T06:37:21.884Z,8.20
2023-10-27T06:40:00.912Z,7.40
2023-10-27T06:42:34.788Z,9.20
2023-10-27T06:45:10.164Z,8.20
2023-10-27T06:47:44.397Z,7.80
2023-10-27T06:50:18.692Z,7.00
2023-10-27T06:52:53.016Z,6.50
2023-10-27T06:55:26.938Z,8.90
2023-10-27T06:58:01.739Z,8.00
2023-10-27T07:00:35.463Z,8.20
2023-10-27T07:03:21.174Z,8.30
2023-10-27T07:06:03.090Z,7.40
2023-10-27T07:08:39.337Z,6.90
2023-10-27T07:11:13.158Z,8.30
2023-10-27T07:13:47.298Z,5.90
2023-10-27T07:16:21.275Z,5.30
2023-10-27T07:18:55.287Z,4.50
2023-10-27T07:21:29.220Z,5.70
2023-10-27T07:24:03.403Z,6.30
2023-10-27T07:26:37.068Z,6.10
2023-10-27T07:29:10.885Z,5.30
2023-10-27T07:31:45.341Z,4.00
2023-10-27T07:34:19.328Z,6.20
2023-10-27T07:36:54.881Z,5.30
2023-10-27T07:39:30.101Z,5.70
2023-10-27T07:42:04.824Z,6.10
2023-10-27T07:47:10.767Z,5.30
2023-10-27T07:49:44.835Z,6.30
2023-10-27T07:52:19.163Z,6.70
2023-10-27T07:54:52.769Z,6.80
2023-10-27T07:57:26.585Z,5.10
2023-10-27T08:00:00.212Z,6.30
2023-10-27T08:02:34.924Z,6.00
2023-10-27T08:05:09.654Z,5.40
2023-10-27T08:07:44.459Z,7.40
2023-10-27T08:10:18.527Z,7.70
2023-10-27T08:12:52.503Z,4.80
2023-10-27T08:15:27.024Z,4.20
2023-10-27T08:18:00.994Z,5.20
2023-10-27T08:20:35.005Z,5.70
2023-10-27T08:23:08.800Z,4.60
2023-10-27T08:25:43.593Z,4.30
2023-10-27T08:28:17.639Z,4.50
2023-10-27T08:30:51.631Z,4.60
2023-10-27T08:33:25.574Z,5.40
2023-10-27T08:36:06.285Z,5.30
2023-10-27T08:38:39.943Z,5.20
2023-10-27T08:41:15.488Z,4.80
2023-10-27T08:43:49.201Z,5.10
2023-10-27T08:46:23.161Z,8.80
2023-10-27T08:48:57.569Z,6.90
2023-10-27T08:51:31.501Z,6.20
2023-10-27T08:54:05.400Z,6.10
2023-10-27T08:56:39.709Z,6.00
2023-10-27T08:59:13.635Z,6.40
2023-10-27T09:01:47.330Z,6.20
2023-10-27T09:04:22.698Z,7.40
2023-10-27T09:06:57.636Z,5.90
2023-10-27T09:09:32.844Z,5.60
2023-10-27T09:12:07.196Z,5.50
2023-10-27T09:14:42.252Z,6.10
2023-10-27T09:17:17.262Z,7.20
2023-10-27T09:19:51.006Z,6.40
2023-10-27T09:22:31.499Z,6.50
2023-10-27T09:25:20.512Z,6.20
2023-10-27T09:27:54.979Z,5.00
2023-10-27T09:30:33.729Z,5.50
2023-10-27T09:33:20.466Z,5.90
2023-10-27T09:35:55.208Z,5.10
2023-10-27T09:38:29.413Z,6.00
2023-10-27T09:41:04.724Z,5.70
2023-10-27T09:43:39.123Z,5.50
2023-10-27T09:46:12.933Z,4.60
2023-10-27T09:48:51.190Z,6.50
2023-10-27T09:51:29.517Z,5.90
2023-10-27T09:54:04.898Z,6.30
2023-10-27T09:56:38.910Z,5.70
2023-10-27T09:59:13.054Z,6.80
2023-10-27T10:01:46.869Z,6.20
2023-10-27T10:04:57.026Z,5.60
2023-10-27T10:07:35.014Z,6.70
2023-10-27T10:10:37.800Z,5.90
2023-10-27T10:13:15.772Z,6.50
2023-10-27T10:15:55.592Z,6.10
2023-10-27T10:18:58.909Z,11.70
2023-10-27T10:21:40.589Z,9.10
2023-10-27T10:24:15.223Z,9.30
2023-10-27T10:27:16.866Z,6.60
2023-10-27T10:29:54.264Z,7.00
2023-10-27T10:32:47.687Z,7.40
2023-10-27T10:35:29.596Z,14.40
2023-10-27T10:38:39.748Z,9.00
2023-10-27T10:41:15.795Z,7.60
2023-10-27T10:43:49.762Z,9.30
2023-10-27T10:46:33.497Z,8.50
2023-10-27T10:49:08.260Z,7.10
2023-10-27T10:51:42.324Z,6.60
2023-10-27T10:54:16.629Z,12.80
2023-10-27T10:56:50.533Z,9.00
2023-10-27T10:59:30.915Z,7.50
2023-10-27T11:02:05.771Z,8.20
2023-10-27T11:04:42.419Z,8.50
2023-10-27T11:07:20.079Z,9.00
2023-10-27T11:09:53.758Z,14.70
2023-10-27T11:12:30.890Z,11.20
2023-10-27T11:15:04.409Z,8.10
2023-10-27T11:17:54.431Z,5.80
2023-10-27T11:20:40.555Z,11.70
2023-10-27T11:23:14.887Z,9.00
2023-10-27T11:25:49.149Z,8.50
2023-10-27T11:28:28.503Z,6.50
2023-10-27T11:31:09.491Z,20.70
2023-10-27T11:33:59.883Z,9.00
2023-10-27T11:36:35.283Z,14.40
2023-10-27T11:39:19.342Z,9.30
2023-10-27T11:41:54.897Z,11.80
2023-10-27T11:44:28.805Z,11.20
2023-10-27T11:47:03.581Z,10.00
2023-10-27T11:49:37.550Z,18.70
2023-10-27T11:52:12.214Z,16.70
2023-10-27T11:54:45.976Z,11.40
2023-10-27T11:57:19.577Z,12.50
2023-10-27T11:59:53.267Z,13.80
2023-10-27T12:02:27.466Z,12.60
2023-10-27T12:05:04.245Z,8.50
2023-10-27T12:07:39.012Z,10.30
2023-10-27T12:10:14.140Z,12.10
2023-10-27T12:12:48.868Z,11.70
2023-10-27T12:15:23.318Z,9.40
2023-10-27T12:17:58.612Z,10.70
2023-10-27T12:20:32.395Z,9.10
2023-10-27T12:23:06.616Z,9.70
2023-10-27T12:25:42.251Z,10.30
2023-10-27T12:28:16.293Z,10.60
2023-10-27T12:30:50.372Z,11.20
2023-10-27T12:33:25.061Z,10.20
2023-10-27T12:35:58.811Z,9.70
2023-10-27T12:38:32.950Z,9.70
2023-10-27T12:41:07.380Z,10.10
2023-10-27T12:43:41.848Z,9.80
2023-10-27T12:46:15.758Z,11.30
2023-10-27T12:48:50.521Z,12.80
2023-10-27T12:51:24.088Z,10.90
2023-10-27T12:53:58.062Z,11.00
2023-10-27T12:56:32.052Z,14.00
2023-10-27T12:59:05.834Z,11.90
2023-10-27T13:01:39.574Z,12.70
2023-10-27T13:04:14.579Z,11.50
2023-10-27T13:06:48.174Z,11.60
2023-10-27T13:09:22.557Z,10.30
2023-10-27T13:11:58.025Z,12.00
2023-10-27T13:14:32.537Z,10.20
2023-10-27T13:17:06.584Z,14.20
2023-10-27T13:19:40.354Z,11.50
2023-10-27T13:22:14.156Z,16.20
2023-10-27T13:24:47.868Z,18.40
2023-10-27T13:27:21.572Z,15.20
2023-10-27T13:30:00.360Z,12.10
2023-10-27T13:32:34.504Z,11.50
2023-10-27T13:35:09.004Z,11.90
2023-10-27T13:37:43.484Z,10.70
2023-10-27T13:40:20.551Z,8.60
2023-10-27T13:42:54.625Z,8.60
2023-10-27T13:45:28.396Z,9.10
2023-10-27T13:48:02.384Z,6.90
2023-10-27T13:50:36.495Z,7.60
2023-10-27T13:53:10.657Z,8.20
2023-10-27T13:55:49.201Z,8.00
2023-10-27T13:58:23.006Z,7.20
2023-10-27T14:00:56.808Z,7.60
2023-10-27T14:03:31.592Z,8.20
2023-10-27T14:06:05.991Z,9.60
2023-10-27T14:08:39.536Z,8.90
2023-10-27T14:11:13.498Z,11.70
2023-10-27T14:13:47.836Z,8.80
2023-10-27T14:16:21.933Z,9.10
2023-10-27T14:18:56.120Z,8.60
2023-10-27T14:21:30.589Z,7.70
2023-10-27T14:24:04.165Z,7.00
2023-10-27T14:26:38.286Z,9.70
2023-10-27T14:29:12.175Z,9.60
2023-10-27T14:31:45.957Z,8.40
2023-10-27T14:34:20.329Z,9.50
2023-10-27T14:36:53.980Z,8.80
2023-10-27T14:39:28.457Z,8.30
2023-10-27T14:42:02.492Z,7.40
2023-10-27T14:44:37.546Z,7.90
2023-10-27T14:47:12.819Z,9.00
2023-10-27T14:49:46.817Z,9.00
2023-10-27T14:52:20.809Z,8.60
2023-10-27T14:54:54.582Z,8.30
2023-10-27T14:57:28.312Z,7.30
2023-10-27T15:00:01.865Z,7.60
2023-10-27T15:02:36.061Z,8.30
2023-10-27T15:05:11.017Z,9.40
2023-10-27T15:07:47.101Z,9.60
2023-10-27T15:10:21.281Z,9.20
2023-10-27T15:12:54.911Z,6.80
2023-10-27T15:15:28.771Z,9.60
2023-10-27T15:18:02.600Z,8.10
2023-10-27T15:20:37.182Z,8.80
2023-10-27T15:23:11.876Z,9.50
2023-10-27T15:25:45.549Z,9.50
2023-10-27T15:28:19.320Z,8.50
2023-10-27T15:31:02.035Z,10.60
2023-10-27T15:33:40.009Z,11.30
2023-10-27T15:36:15.903Z,12.90
2023-10-27T15:38:49.959Z,10.60
2023-10-27T15:41:30.841Z,9.60
2023-10-27T15:44:05.013Z,9.70
2023-10-27T15:46:41.926Z,11.30
2023-10-27T15:49:15.938Z,9.80
2023-10-27T15:51:50.113Z,10.10
2023-10-27T15:54:23.522Z,10.00
2023-10-27T15:56:58.344Z,9.50
2023-10-27T15:59:38.431Z,10.30
2023-10-27T16:02:12.553Z,10.50
2023-10-27T16:04:46.577Z,8.50
2023-10-27T16:07:21.190Z,8.30
2023-10-27T16:09:55.312Z,9.10
2023-10-27T16:12:28.962Z,18.60
2023-10-27T16:15:03.027Z,15.10
2023-10-27T16:17:38.378Z,8.70
2023-10-27T16:20:14.860Z,14.60
2023-10-27T16:22:48.508Z,15.80
2023-10-27T16:25:23.317Z,15.30
2023-10-27T16:27:57.836Z,14.80
2023-10-27T16:30:32.568Z,13.70
2023-10-27T16:33:06.086Z,10.80
2023-10-27T16:35:41.590Z,8.90
2023-10-27T16:38:15.141Z,6.50
2023-10-27T16:40:49.122Z,8.20
2023-10-27T16:43:24.604Z,10.10
2023-10-27T16:46:05.571Z,13.60
2023-10-27T16:48:39.877Z,17.20
2023-10-27T16:51:15.961Z,12.50
2023-10-27T16:53:50.211Z,15.30
2023-10-27T16:56:23.880Z,9.20
2023-10-27T16:59:01.647Z,9.20
2023-10-27T17:01:35.484Z,11.20
2023-10-27T17:04:09.404Z,10.50
2023-10-27T17:06:43.153Z,9.30
2023-10-27T17:09:17.715Z,9.90
2023-10-27T17:11:55.955Z,9.20
2023-10-27T17:14:30.436Z,8.70
2023-10-27T17:17:05.349Z,7.60
2023-10-27T17:19:39.503Z,7.10
2023-10-27T17:22:25.327Z,6.60
2023-10-27T17:25:02.053Z,8.00
2023-10-27T17:27:36.575Z,7.60
2023-10-27T17:30:12.708Z,6.30
2023-10-27T17:32:47.063Z,8.30
2023-10-27T17:35:21.311Z,6.70
2023-10-27T17:37:55.148Z,8.30
2023-10-27T17:40:30.406Z,9.00
2023-10-27T17:43:04.801Z,9.40
2023-10-27T17:45:41.849Z,8.30
2023-10-27T17:48:16.851Z,10.40
2023-10-27T17:50:51.539Z,9.00
2023-10-27T17:53:26.364Z,10.00
2023-10-27T17:56:00.794Z,8.80
2023-10-27T17:58:34.901Z,8.60
2023-10-27T18:01:10.419Z,11.00
2023-10-27T18:03:44.515Z,9.80
2023-10-27T18:06:18.820Z,12.10
2023-10-27T18:08:53.151Z,12.20
2023-10-27T18:11:27.959Z,10.90
2023-10-27T18:14:02.182Z,9.50
2023-10-27T18:16:36.671Z,8.40
2023-10-27T18:19:11.043Z,7.50
2023-10-27T18:21:45.306Z,7.40
2023-10-27T18:24:19.348Z,8.00
2023-10-27T18:26:53.313Z,8.10
2023-10-27T18:29:27.523Z,9.50
2023-10-27T18:32:01.404Z,8.40
2023-10-27T18:34:35.162Z,7.30
2023-10-27T18:37:09.786Z,7.80
2023-10-27T18:39:43.631Z,9.20
2023-10-27T18:42:17.728Z,7.20
2023-10-27T18:44:54.092Z,8.10
2023-10-27T18:47:31.488Z,7.60
2023-10-27T18:50:10.365Z,7.20
2023-10-27T18:52:44.283Z,10.20
2023-10-27T18:55:21.356Z,13.40
2023-10-27T18:57:56.165Z,10.60
2023-10-27T19:00:34.812Z,9.40
2023-10-27T19:03:09.634Z,11.40
2023-10-27T19:05:44.176Z,13.30
2023-10-27T19:08:18.207Z,18.00
2023-10-27T19:10:52.718Z,10.40
2023-10-27T19:13:26.569Z,13.10
2023-10-27T19:16:00.489Z,13.40
2023-10-27T19:18:35.435Z,12.50
2023-10-27T19:21:13.952Z,12.10
2023-10-27T19:23:50.042Z,11.10
2023-10-27T19:26:26.823Z,12.10
2023-10-27T19:29:01.496Z,11.60
2023-10-27T19:31:35.829Z,10.70
2023-10-27T19:34:09.865Z,10.60
2023-10-27T19:36:43.811Z,10.20
2023-10-27T19:39:18.628Z,11.60
2023-10-27T19:41:52.476Z,11.60
2023-10-27T19:44:26.202Z,9.80
2023-10-27T19:47:00.150Z,8.90
2023-10-27T19:49:35.087Z,12.50
2023-10-27T19:52:12.197Z,12.30
2023-10-27T19:54:46.015Z,10.70
2023-10-27T19:57:20.189Z,10.70
2023-10-27T19:59:54.234Z,11.00
2023-10-27T20:02:28.307Z,12.30
2023-10-27T20:05:02.313Z,13.70
2023-10-27T20:07:36.227Z,13.60
2023-10-27T20:10:11.528Z,16.00
2023-10-27T20:12:45.379Z,15.00
2023-10-27T20:15:20.711Z,14.30
2023-10-27T20:17:55.054Z,12.20
2023-10-27T20:20:31.074Z,14.00
2023-10-27T20:23:05.569Z,14.50
2023-10-27T20:25:39.368Z,12.80
2023-10-27T20:28:13.566Z,15.20
2023-10-27T20:30:47.946Z,15.40
2023-10-27T20:33:23.380Z,12.40
2023-10-27T20:35:58.082Z,13.30
2023-10-27T20:38:32.010Z,13.40
2023-10-27T20:41:07.156Z,13.20
2023-10-27T20:43:40.882Z,15.40
2023-10-27T20:46:15.717Z,12.20
2023-10-27T20:48:49.798Z,11.30
2023-10-27T20:51:24.564Z,11.80
2023-10-27T20:53:59.299Z,11.50
2023-10-27T20:56:34.288Z,9.90
2023-10-27T20:59:08.438Z,10.80
2023-10-27T21:01:43.042Z,12.60
2023-10-27T21:04:16.984Z,10.80
2023-10-27T21:06:51.782Z,8.30
2023-10-27T21:09:28.798Z,8.50
2023-10-27T21:12:03.978Z,10.10
2023-10-27T21:14:38.042Z,11.20
2023-10-27T21:17:12.700Z,9.40
2023-10-27T21:19:46.687Z,8.80
2023-10-27T21:22:22.299Z,8.10
2023-10-27T21:24:57.480Z,8.30
2023-10-27T21:27:31.972Z,8.70
2023-10-27T21:30:06.809Z,14.20
2023-10-27T21:32:40.761Z,11.40
2023-10-27T21:35:14.994Z,13.90
2023-10-27T21:37:53.516Z,13.60
2023-10-27T21:40:28.191Z,11.30
2023-10-27T21:43:02.462Z,10.70
2023-10-27T21:45:37.066Z,10.80
2023-10-27T21:48:15.558Z,10.60
2023-10-27T21:50:49.894Z,11.40
2023-10-27T21:53:23.981Z,11.10
2023-10-27T21:55:58.724Z,11.10
2023-10-27T21:58:33.354Z,12.00
2023-10-27T22:01:09.648Z,10.80
2023-10-27T22:03:44.738Z,13.90
2023-10-27T22:06:20.052Z,11.60
2023-10-27T22:08:54.135Z,10.50
2023-10-27T22:11:30.569Z,10.10
2023-10-27T22:14:05.258Z,9.60
2023-10-27T22:16:41.849Z,9.70
2023-10-27T22:19:16.773Z,10.40
2023-10-27T22:21:51.214Z,10.50
2023-10-27T22:24:25.314Z,9.90
2023-10-27T22:27:00.435Z,11.80
2023-10-27T22:29:34.526Z,9.90
2023-10-27T22:32:08.687Z,11.20
2023-10-27T22:34:43.174Z,11.10
2023-10-27T22:37:17.197Z,11.90
2023-10-27T22:39:50.808Z,11.80
2023-10-27T22:42:25.371Z,12.30
2023-10-27T22:45:00.036Z,10.40
2023-10-27T22:47:33.876Z,12.20
2023-10-27T22:50:11.106Z,12.40
2023-10-27T22:52:46.573Z,11.30
2023-10-27T22:55:22.414Z,11.20
2023-10-27T22:57:56.361Z,11.70
2023-10-27T23:00:30.310Z,11.90
2023-10-27T23:03:05.551Z,13.50
2023-10-27T23:05:41.065Z,12.70
2023-10-27T23:08:15.779Z,10.80
2023-10-27T23:10:50.127Z,11.30
2023-10-27T23:13:24.729Z,11.40
2023-10-27T23:16:07.236Z,12.00
2023-10-27T23:18:43.257Z,13.60
2023-10-27T23:21:18.348Z,11.40
2023-10-27T23:23:52.745Z,13.40
2023-10-27T23:26:26.762Z,12.30
2023-10-27T23:29:00.924Z,12.00
2023-10-27T23:31:35.765Z,12.80
2023-10-27T23:34:09.644Z,14.00
2023-10-27T23:36:44.382Z,11.20
2023-10-27T23:39:18.953Z,11.60
2023-10-27T23:41:52.432Z,11.40
2023-10-27T23:44:26.877Z,11.90
2023-10-27T23:47:02.622Z,13.50
2023-10-27T23:49:36.897Z,12.50
2023-10-27T23:52:12.095Z,12.00
2023-10-27T23:54:46.747Z,11.70
2023-10-27T23:57:21.525Z,10.90
2023-10-27T23:59:57.052Z,10.40
